createdAt,value
2018-06-18T00:00:00.844Z,18.22
2018-06-18T00:01:01.023Z,18.28
2018-06-18T00:02:01.202Z,18.13
2018-06-18T00:03:01.377Z,18.20
2018-06-18T00:04:01.561Z,18.26
2018-06-18T00:05:01.744Z,18.23
2018-06-18T00:06:01.915Z,18.26
2018-06-18T00:07:02.097Z,18.26
2018-06-18T00:08:02.271Z,18.25
2018-06-18T00:09:02.446Z,18.11
2018-06-18T00:10:02.628Z,18.22
2018-06-18T00:11:02.796Z,18.19
2018-06-18T00:12:02.976Z,18.29
2018-06-18T00:13:03.157Z,18.22
2018-06-18T00:14:03.339Z,18.25
2018-06-18T00:15:03.513Z,18.31
2018-06-18T00:16:03.695Z,18.10
2018-06-18T00:17:03.865Z,18.18
2018-06-18T00:18:04.037Z,18.11
2018-06-18T00:19:04.218Z,18.13
2018-06-18T00:20:04.397Z,18.08
2018-06-18T00:21:04.576Z,18.20
2018-06-18T00:22:04.759Z,18.29
2018-06-18T00:23:04.930Z,18.23
2018-06-18T00:24:05.111Z,18.15
2018-06-18T00:25:05.287Z,18.20
2018-06-18T00:26:05.462Z,18.05
2018-06-18T00:27:05.635Z,18.18
2018-06-18T00:28:09.935Z,18.13
2018-06-18T00:29:11.322Z,17.98
2018-06-18T00:30:09.311Z,18.07
2018-06-18T00:31:11.062Z,18.04
2018-06-18T00:32:09.276Z,18.05
2018-06-18T00:33:10.404Z,17.98
2018-06-18T00:34:08.241Z,18.04
2018-06-18T00:35:08.012Z,17.94
2018-06-18T00:36:08.797Z,17.89
2018-06-18T00:37:07.399Z,17.92
2018-06-18T00:38:07.574Z,17.89
2018-06-18T00:39:07.753Z,17.82
2018-06-18T00:40:07.928Z,17.83
2018-06-18T00:41:08.102Z,17.82
2018-06-18T00:42:08.278Z,17.70
2018-06-18T00:43:08.460Z,17.68
2018-06-18T00:44:08.629Z,17.70
2018-06-18T00:45:08.814Z,17.70
2018-06-18T00:46:08.991Z,17.57
2018-06-18T00:47:09.213Z,17.54
2018-06-18T00:48:09.338Z,17.59
2018-06-18T00:49:09.517Z,17.63
2018-06-18T00:50:09.696Z,17.56
2018-06-18T00:51:09.868Z,17.51
2018-06-18T00:52:10.045Z,17.46
2018-06-18T00:53:10.222Z,17.44
2018-06-18T00:54:10.393Z,17.54
2018-06-18T00:55:10.569Z,17.48
2018-06-18T00:56:10.745Z,17.34
2018-06-18T00:57:10.927Z,17.41
2018-06-18T00:58:11.106Z,17.36
2018-06-18T00:59:11.277Z,17.27
2018-06-18T01:00:11.452Z,17.27
2018-06-18T01:01:11.625Z,17.27
2018-06-18T01:02:11.800Z,17.20
2018-06-18T01:03:11.970Z,17.26
2018-06-18T01:04:12.145Z,17.26
2018-06-18T01:05:12.320Z,17.23
2018-06-18T01:06:12.500Z,17.12
2018-06-18T01:07:12.673Z,17.22
2018-06-18T01:08:12.846Z,17.16
2018-06-18T01:09:13.021Z,17.12
2018-06-18T01:10:13.194Z,17.16
2018-06-18T01:11:13.370Z,17.29
2018-06-18T01:12:13.541Z,17.23
2018-06-18T01:13:13.720Z,17.19
2018-06-18T01:14:13.895Z,17.29
2018-06-18T01:15:14.072Z,17.15
2018-06-18T01:16:14.257Z,17.24
2018-06-18T01:17:14.433Z,17.24
2018-06-18T01:18:14.610Z,17.29
2018-06-18T01:19:14.789Z,17.24
2018-06-18T01:20:14.970Z,17.22
2018-06-18T01:21:15.145Z,17.24
2018-06-18T01:22:15.324Z,17.24
2018-06-18T01:23:15.509Z,17.24
2018-06-18T01:24:15.684Z,17.23
2018-06-18T01:25:15.861Z,17.19
2018-06-18T01:26:16.031Z,17.16
2018-06-18T01:27:16.208Z,17.20
2018-06-18T01:28:16.389Z,17.19
2018-06-18T01:29:16.565Z,17.12
2018-06-18T01:30:16.746Z,17.19
2018-06-18T01:31:16.922Z,17.19
2018-06-18T01:32:17.108Z,17.16
2018-06-18T01:33:17.283Z,17.12
2018-06-18T01:34:17.466Z,17.19
2018-06-18T01:35:17.651Z,17.08
2018-06-18T01:36:17.831Z,16.93
2018-06-18T01:37:18.014Z,16.91
2018-06-18T01:38:18.207Z,16.83
2018-06-18T01:39:18.394Z,16.83
2018-06-18T01:40:18.583Z,16.78
2018-06-18T01:41:18.754Z,16.75
2018-06-18T01:42:18.936Z,16.68
2018-06-18T01:43:19.110Z,16.69
2018-06-18T01:44:19.292Z,16.69
2018-06-18T01:45:19.465Z,16.69
2018-06-18T01:46:19.650Z,16.65
2018-06-18T01:47:19.826Z,16.65
2018-06-18T01:48:20.002Z,16.60
2018-06-18T01:49:20.181Z,16.57
2018-06-18T01:50:20.347Z,16.53
2018-06-18T01:51:20.531Z,16.60
2018-06-18T01:52:20.701Z,16.56
2018-06-18T01:53:20.871Z,16.50
2018-06-18T01:54:21.047Z,16.61
2018-06-18T01:55:21.223Z,16.60
2018-06-18T01:56:21.408Z,16.49
2018-06-18T01:57:21.591Z,16.54
2018-06-18T01:58:21.758Z,16.46
2018-06-18T01:59:21.933Z,16.36
2018-06-18T02:00:22.107Z,16.35
2018-06-18T02:01:22.280Z,16.36
2018-06-18T02:02:22.462Z,16.39
2018-06-18T02:03:22.640Z,16.31
2018-06-18T02:04:22.806Z,16.33
2018-06-18T02:05:22.989Z,16.28
2018-06-18T02:06:23.173Z,16.31
2018-06-18T02:07:23.341Z,16.28
2018-06-18T02:08:23.522Z,16.23
2018-06-18T02:09:23.693Z,16.23
2018-06-18T02:10:23.880Z,16.26
2018-06-18T02:11:24.062Z,16.24
2018-06-18T02:12:24.239Z,16.29
2018-06-18T02:13:24.414Z,16.26
2018-06-18T02:14:24.588Z,16.20
2018-06-18T02:15:24.769Z,16.21
2018-06-18T02:16:24.946Z,16.28
2018-06-18T02:17:25.137Z,16.28
2018-06-18T02:18:25.312Z,16.28
2018-06-18T02:19:25.477Z,16.28
2018-06-18T02:20:25.669Z,16.20
2018-06-18T02:21:25.834Z,16.26
2018-06-18T02:22:26.011Z,16.33
2018-06-18T02:23:26.190Z,16.23
2018-06-18T02:24:26.368Z,16.17
2018-06-18T02:25:26.543Z,16.29
2018-06-18T02:26:26.716Z,16.23
2018-06-18T02:27:26.888Z,16.24
2018-06-18T02:28:27.059Z,16.31
2018-06-18T02:29:27.239Z,16.33
2018-06-18T02:30:27.411Z,16.28
2018-06-18T02:31:27.584Z,16.31
2018-06-18T02:32:27.775Z,16.32
2018-06-18T02:33:27.951Z,16.35
2018-06-18T02:34:28.124Z,16.20
2018-06-18T02:35:28.299Z,16.31
2018-06-18T02:36:28.468Z,16.29
2018-06-18T02:37:28.646Z,16.23
2018-06-18T02:38:28.814Z,16.21
2018-06-18T02:39:28.988Z,16.28
2018-06-18T02:40:29.152Z,16.29
2018-06-18T02:41:29.330Z,16.23
2018-06-18T02:42:29.497Z,16.13
2018-06-18T02:43:29.672Z,16.23
2018-06-18T02:44:33.734Z,16.02
2018-06-18T02:45:29.959Z,16.02
2018-06-18T02:46:30.135Z,16.04
2018-06-18T02:47:30.309Z,16.10
2018-06-18T02:48:30.483Z,16.13
2018-06-18T02:49:30.662Z,16.17
2018-06-18T02:50:30.833Z,16.13
2018-06-18T02:51:31.016Z,16.26
2018-06-18T02:52:31.199Z,16.32
2018-06-18T02:53:31.377Z,16.16
2018-06-18T02:54:31.556Z,16.21
2018-06-18T02:55:31.727Z,16.20
2018-06-18T02:56:31.905Z,16.09
2018-06-18T02:57:32.080Z,16.13
2018-06-18T02:58:32.247Z,16.08
2018-06-18T02:59:32.416Z,16.02
2018-06-18T03:00:32.597Z,16.02
2018-06-18T03:01:32.777Z,16.02
2018-06-18T03:02:32.958Z,16.02
2018-06-18T03:03:33.141Z,15.97
2018-06-18T03:04:33.308Z,16.05
2018-06-18T03:05:33.477Z,16.04
2018-06-18T03:06:33.663Z,16.04
2018-06-18T03:07:33.833Z,15.94
2018-06-18T03:08:34.009Z,16.01
2018-06-18T03:09:34.180Z,15.97
2018-06-18T03:10:34.355Z,15.95
2018-06-18T03:11:34.535Z,16.00
2018-06-18T03:12:34.704Z,15.94
2018-06-18T03:13:34.897Z,15.94
2018-06-18T03:14:35.064Z,15.91
2018-06-18T03:15:35.239Z,16.01
2018-06-18T03:16:35.414Z,16.04
2018-06-18T03:17:35.599Z,15.92
2018-06-18T03:18:35.779Z,16.00
2018-06-18T03:19:35.944Z,15.82
2018-06-18T03:20:36.119Z,15.91
2018-06-18T03:21:36.296Z,15.91
2018-06-18T03:22:36.481Z,15.95
2018-06-18T03:23:39.525Z,15.94
2018-06-18T03:24:37.657Z,16.01
2018-06-18T03:25:38.139Z,16.01
2018-06-18T03:26:37.175Z,16.01
2018-06-18T03:27:37.353Z,16.04
2018-06-18T03:28:37.535Z,16.09
2018-06-18T03:29:37.714Z,16.12
2018-06-18T03:30:37.891Z,16.16
2018-06-18T03:31:38.064Z,16.13
2018-06-18T03:32:38.247Z,16.24
2018-06-18T03:33:38.430Z,16.24
2018-06-18T03:34:38.601Z,16.20
2018-06-18T03:35:38.770Z,16.33
2018-06-18T03:36:38.950Z,16.39
2018-06-18T03:37:39.121Z,16.26
2018-06-18T03:38:39.296Z,16.32
2018-06-18T03:39:39.465Z,16.20
2018-06-18T03:40:39.641Z,16.38
2018-06-18T03:41:39.816Z,16.17
2018-06-18T03:42:39.984Z,16.21
2018-06-18T03:43:40.168Z,16.24
2018-06-18T03:44:40.333Z,16.28
2018-06-18T03:45:40.567Z,16.39
2018-06-18T03:46:40.694Z,16.32
2018-06-18T03:47:40.873Z,16.38
2018-06-18T03:48:41.040Z,16.32
2018-06-18T03:49:41.217Z,16.31
2018-06-18T03:50:41.412Z,16.31
2018-06-18T03:51:41.588Z,16.36
2018-06-18T03:52:41.772Z,16.21
2018-06-18T03:53:41.956Z,16.31
2018-06-18T03:54:42.137Z,16.29
2018-06-18T03:55:42.317Z,16.31
2018-06-18T03:56:42.499Z,16.23
2018-06-18T03:57:42.674Z,16.33
2018-06-18T03:58:42.848Z,16.29
2018-06-18T03:59:43.022Z,16.26
2018-06-18T04:00:43.196Z,16.31
2018-06-18T04:01:43.387Z,16.28
2018-06-18T04:02:43.566Z,16.26
2018-06-18T04:03:43.745Z,16.28
2018-06-18T04:04:43.909Z,16.42
2018-06-18T04:05:44.090Z,16.39
2018-06-18T04:06:44.265Z,16.51
2018-06-18T04:07:44.597Z,16.43
2018-06-18T04:08:44.608Z,16.36
2018-06-18T04:09:44.789Z,16.26
2018-06-18T04:10:44.981Z,16.29
2018-06-18T04:11:45.133Z,16.15
2018-06-18T04:12:45.313Z,16.12
2018-06-18T04:13:45.495Z,16.20
2018-06-18T04:14:45.675Z,16.29
2018-06-18T04:15:45.854Z,16.26
2018-06-18T04:16:46.027Z,16.26
2018-06-18T04:17:46.256Z,16.16
2018-06-18T04:18:46.326Z,16.16
2018-06-18T04:19:48.149Z,16.20
2018-06-18T04:20:49.910Z,16.21
2018-06-18T04:21:46.885Z,16.29
2018-06-18T04:22:48.598Z,16.24
2018-06-18T04:23:47.200Z,16.35
2018-06-18T04:24:47.437Z,16.41
2018-06-18T04:25:47.561Z,16.46
2018-06-18T04:26:47.731Z,16.50
2018-06-18T04:27:47.916Z,16.53
2018-06-18T04:28:48.100Z,16.49
2018-06-18T04:29:48.282Z,16.50
2018-06-18T04:30:48.462Z,16.54
2018-06-18T04:31:48.634Z,16.46
2018-06-18T04:32:48.808Z,16.49
2018-06-18T04:33:48.991Z,16.64
2018-06-18T04:34:49.160Z,16.64
2018-06-18T04:35:49.337Z,16.61
2018-06-18T04:36:49.508Z,16.61
2018-06-18T04:37:49.704Z,16.69
2018-06-18T04:38:49.864Z,16.61
2018-06-18T04:39:50.036Z,16.64
2018-06-18T04:40:50.216Z,16.71
2018-06-18T04:41:50.394Z,16.72
2018-06-18T04:42:50.575Z,16.75
2018-06-18T04:43:50.767Z,16.84
2018-06-18T04:44:50.955Z,16.86
2018-06-18T04:45:51.111Z,16.89
2018-06-18T04:46:51.289Z,17.05
2018-06-18T04:47:51.466Z,17.01
2018-06-18T04:48:51.645Z,17.06
2018-06-18T04:49:51.844Z,16.97
2018-06-18T04:50:51.997Z,17.15
2018-06-18T04:51:52.165Z,17.16
2018-06-18T04:52:52.341Z,17.15
2018-06-18T04:53:52.534Z,17.20
2018-06-18T04:54:52.720Z,17.31
2018-06-18T04:55:52.887Z,17.12
2018-06-18T04:56:53.062Z,17.06
2018-06-18T04:57:53.237Z,17.06
2018-06-18T04:58:53.406Z,17.02
2018-06-18T04:59:53.580Z,17.05
2018-06-18T05:00:53.755Z,17.11
2018-06-18T05:01:53.965Z,17.15
2018-06-18T05:02:54.137Z,17.14
2018-06-18T05:03:54.309Z,17.16
2018-06-18T05:04:54.486Z,17.26
2018-06-18T05:05:54.663Z,17.22
2018-06-18T05:06:54.838Z,17.24
2018-06-18T05:07:55.018Z,17.29
2018-06-18T05:08:55.204Z,17.36
2018-06-18T05:09:55.384Z,17.38
2018-06-18T05:10:55.565Z,17.46
2018-06-18T05:11:56.063Z,17.51
2018-06-18T05:12:55.866Z,17.65
2018-06-18T05:13:56.233Z,17.72
2018-06-18T05:14:56.168Z,17.59
2018-06-18T05:15:56.358Z,17.63
2018-06-18T05:16:56.533Z,17.63
2018-06-18T05:17:56.706Z,17.48
2018-06-18T05:18:56.889Z,17.45
2018-06-18T05:19:57.068Z,17.38
2018-06-18T05:20:57.244Z,17.36
2018-06-18T05:21:57.427Z,17.42
2018-06-18T05:22:57.608Z,17.36
2018-06-18T05:23:57.792Z,17.29
2018-06-18T05:24:57.967Z,17.31
2018-06-18T05:25:58.136Z,17.29
2018-06-18T05:26:58.305Z,17.20
2018-06-18T05:27:58.486Z,17.29
2018-06-18T05:28:58.665Z,17.14
2018-06-18T05:29:58.858Z,17.11
2018-06-18T05:30:59.047Z,17.09
2018-06-18T05:31:59.235Z,17.11
2018-06-18T05:32:59.477Z,17.15
2018-06-18T05:33:59.581Z,17.14
2018-06-18T05:34:59.808Z,17.23
2018-06-18T05:35:59.977Z,17.27
2018-06-18T05:37:00.158Z,17.20
2018-06-18T05:38:00.361Z,17.30
2018-06-18T05:39:00.568Z,17.27
2018-06-18T05:40:04.508Z,17.31
2018-06-18T05:41:00.921Z,17.30
2018-06-18T05:42:01.096Z,17.49
2018-06-18T05:43:01.279Z,17.54
2018-06-18T05:44:01.455Z,17.57
2018-06-18T05:45:01.649Z,17.65
2018-06-18T05:46:01.822Z,17.56
2018-06-18T05:47:02.004Z,17.57
2018-06-18T05:48:02.185Z,17.52
2018-06-18T05:49:02.356Z,17.71
2018-06-18T05:50:02.541Z,17.74
2018-06-18T05:51:04.948Z,17.86
2018-06-18T05:52:03.165Z,18.00
2018-06-18T05:53:03.529Z,17.98
2018-06-18T05:54:04.214Z,18.13
2018-06-18T05:55:03.375Z,18.28
2018-06-18T05:56:03.470Z,18.45
2018-06-18T05:57:03.651Z,18.60
2018-06-18T05:58:03.831Z,18.75
2018-06-18T05:59:04.012Z,18.75
2018-06-18T06:00:04.200Z,18.93
2018-06-18T06:01:04.401Z,19.07
2018-06-18T06:02:04.546Z,19.12
2018-06-18T06:03:04.724Z,18.95
2018-06-18T06:04:04.897Z,19.07
2018-06-18T06:05:05.074Z,19.08
2018-06-18T06:06:05.306Z,19.11
2018-06-18T06:07:05.438Z,19.14
2018-06-18T06:08:05.614Z,19.16
2018-06-18T06:09:05.788Z,19.29
2018-06-18T06:10:05.962Z,19.34
2018-06-18T06:11:06.141Z,19.37
2018-06-18T06:12:06.320Z,19.39
2018-06-18T06:13:06.502Z,19.39
2018-06-18T06:14:06.677Z,19.36
2018-06-18T06:15:06.880Z,19.36
2018-06-18T06:16:07.076Z,19.29
2018-06-18T06:17:07.257Z,19.09
2018-06-18T06:18:07.441Z,19.18
2018-06-18T06:19:07.624Z,19.15
2018-06-18T06:20:07.833Z,19.19
2018-06-18T06:21:07.966Z,19.16
2018-06-18T06:22:08.152Z,19.09
2018-06-18T06:23:08.323Z,18.93
2018-06-18T06:24:08.512Z,18.92
2018-06-18T06:25:08.685Z,18.92
2018-06-18T06:26:08.868Z,18.78
2018-06-18T06:27:09.045Z,18.78
2018-06-18T11:50:15.561Z,23.36
2018-06-18T11:51:15.607Z,23.43
2018-06-18T11:52:15.843Z,23.32
2018-06-18T11:53:15.977Z,23.25
2018-06-18T11:54:16.398Z,23.31
2018-06-18T11:55:16.411Z,23.31
2018-06-18T11:56:16.612Z,23.34
2018-06-18T11:57:16.943Z,23.47
2018-06-18T11:58:17.380Z,23.47
2018-06-18T11:59:17.252Z,23.41
2018-06-18T12:00:17.607Z,23.21
2018-06-18T12:01:17.986Z,23.21
2018-06-18T12:02:17.714Z,23.23
2018-06-18T12:03:17.950Z,23.36
2018-06-18T12:04:18.407Z,23.24
2018-06-18T12:05:18.467Z,23.34
2018-06-18T12:06:18.454Z,23.20
2018-06-18T12:07:19.656Z,23.13
2018-06-18T12:08:18.949Z,23.31
2018-06-18T12:09:20.157Z,23.31
2018-06-18T12:10:19.197Z,23.34
2018-06-18T12:11:19.334Z,23.51
2018-06-18T12:12:19.412Z,23.86
2018-06-18T12:13:19.708Z,23.83
2018-06-18T12:14:19.807Z,23.93
2018-06-18T12:15:19.676Z,24.05
2018-06-18T12:16:19.853Z,23.92
2018-06-18T12:17:20.016Z,23.84
2018-06-18T12:18:20.223Z,23.92
2018-06-18T12:19:21.391Z,23.96
2018-06-18T12:20:20.552Z,23.87
2018-06-18T12:21:20.761Z,23.77
2018-06-18T12:22:20.993Z,23.61
2018-06-18T12:23:21.121Z,23.55
2018-06-18T12:24:21.310Z,23.63
2018-06-18T12:25:21.812Z,23.51
2018-06-18T12:26:22.143Z,23.55
2018-06-18T12:27:22.063Z,23.43
2018-06-18T12:28:22.150Z,23.21
2018-06-18T12:29:23.075Z,23.32
2018-06-18T12:30:22.419Z,23.28
2018-06-18T12:31:22.875Z,23.09
2018-06-18T12:32:22.714Z,23.10
2018-06-18T12:33:23.777Z,23.13
2018-06-18T12:34:23.536Z,23.03
2018-06-18T12:35:23.456Z,23.00
2018-06-18T12:36:24.797Z,22.99
2018-06-18T12:37:24.441Z,23.03
2018-06-18T12:38:24.766Z,23.31
2018-06-18T12:39:24.092Z,23.36
2018-06-18T12:40:24.988Z,23.24
2018-06-18T12:41:24.420Z,23.34
2018-06-18T12:42:25.036Z,23.23
2018-06-18T12:43:25.563Z,23.20
2018-06-18T12:44:24.836Z,23.15
2018-06-18T12:45:24.656Z,23.09
2018-06-18T12:46:24.878Z,23.13
2018-06-18T12:47:25.070Z,23.21
2018-06-18T12:48:25.279Z,23.24
2018-06-18T12:49:25.452Z,23.23
2018-06-18T12:50:25.640Z,23.17
2018-06-18T12:51:25.813Z,23.27
2018-06-18T12:52:27.189Z,23.41
2018-06-18T12:53:26.612Z,23.47
2018-06-18T12:54:26.785Z,23.47
2018-06-18T12:55:27.134Z,23.65
2018-06-18T12:56:26.797Z,23.71
2018-06-18T12:57:26.734Z,23.55
2018-06-18T12:58:26.949Z,23.61
2018-06-18T12:59:27.156Z,23.73
2018-06-18T13:00:27.385Z,23.76
2018-06-18T13:01:27.692Z,23.81
2018-06-18T13:02:28.194Z,23.91
2018-06-18T13:03:28.051Z,23.93
2018-06-18T13:04:29.279Z,24.16
2018-06-18T13:05:28.726Z,24.28
2018-06-18T13:06:28.401Z,24.24
2018-06-18T13:07:28.576Z,24.26
2018-06-18T13:08:28.759Z,24.28
2018-06-18T13:09:28.966Z,24.18
2018-06-18T13:10:31.168Z,24.30
2018-06-18T13:11:31.422Z,24.30
2018-06-18T13:12:32.525Z,24.38
2018-06-18T13:13:31.419Z,24.50
2018-06-18T13:14:30.152Z,24.50
2018-06-18T13:15:31.256Z,24.63
2018-06-18T13:16:32.713Z,24.63
2018-06-18T13:17:30.453Z,24.76
2018-06-18T13:18:30.642Z,25.03
2018-06-18T13:19:30.830Z,25.13
2018-06-18T13:20:31.054Z,25.08
2018-06-18T13:21:31.203Z,24.85
2018-06-18T13:22:31.451Z,25.11
2018-06-18T13:23:31.549Z,24.98
2018-06-18T13:24:31.625Z,25.04
2018-06-18T13:25:31.813Z,24.92
2018-06-18T13:26:31.988Z,24.55
2018-06-18T13:27:32.172Z,24.48
2018-06-18T13:28:32.348Z,24.21
2018-06-18T13:29:32.534Z,24.28
2018-06-18T13:30:32.835Z,24.11
2018-06-18T13:31:32.842Z,24.11
2018-06-18T13:32:33.023Z,23.91
2018-06-18T13:33:33.210Z,23.95
2018-06-18T13:34:33.400Z,23.91
2018-06-18T13:35:33.576Z,23.86
2018-06-18T13:36:33.764Z,23.91
2018-06-18T13:37:33.949Z,23.92
2018-06-18T13:38:34.203Z,23.87
2018-06-18T13:39:34.256Z,23.76
2018-06-18T13:40:34.439Z,23.66
2018-06-18T13:41:34.636Z,23.65
2018-06-18T13:42:34.853Z,23.50
2018-06-18T13:43:36.357Z,23.54
2018-06-18T13:44:36.431Z,23.59
2018-06-18T13:45:37.287Z,23.46
2018-06-18T13:46:35.643Z,23.44
2018-06-18T13:47:35.856Z,23.63
2018-06-18T13:48:36.626Z,23.73
2018-06-18T13:49:37.784Z,23.73
2018-06-18T13:50:36.405Z,23.87
2018-06-18T13:51:38.113Z,23.88
2018-06-18T13:52:37.962Z,23.95
2018-06-18T13:53:38.689Z,24.03
2018-06-18T13:54:39.536Z,24.08
2018-06-18T13:55:37.246Z,24.10
2018-06-18T13:56:37.431Z,24.29
2018-06-18T13:57:37.890Z,24.36
2018-06-18T13:58:37.862Z,24.33
2018-06-18T13:59:38.022Z,24.29
2018-06-18T14:00:38.201Z,24.29
2018-06-18T14:01:38.380Z,24.18
2018-06-18T14:02:38.564Z,24.35
2018-06-18T14:03:38.773Z,24.35
2018-06-18T14:04:38.932Z,24.33
2018-06-18T14:05:39.126Z,24.30
2018-06-18T14:06:39.318Z,24.38
2018-06-18T14:07:39.501Z,24.54
2018-06-18T14:08:39.689Z,24.23
2018-06-18T14:09:41.322Z,24.38
2018-06-18T14:10:40.618Z,24.58
2018-06-18T14:11:41.079Z,24.58
2018-06-18T14:12:40.474Z,24.58
2018-06-18T14:13:40.749Z,24.50
2018-06-18T14:14:40.865Z,24.63
2018-06-18T14:15:41.047Z,24.45
2018-06-18T14:16:41.237Z,24.45
2018-06-18T14:17:41.421Z,24.38
2018-06-18T14:18:41.604Z,24.50
2018-06-18T14:19:41.840Z,24.33
2018-06-18T14:20:41.966Z,24.35
2018-06-18T14:21:42.182Z,24.45
2018-06-18T14:22:42.333Z,24.40
2018-06-18T14:23:42.504Z,24.33
2018-06-18T14:24:42.762Z,24.48
2018-06-18T14:25:42.837Z,24.51
2018-06-18T14:26:43.009Z,24.45
2018-06-18T14:27:43.194Z,24.60
2018-06-18T14:28:43.365Z,24.53
2018-06-18T14:29:43.551Z,24.53
2018-06-18T14:30:43.733Z,24.60
2018-06-18T14:31:43.912Z,24.43
2018-06-18T14:32:44.154Z,24.36
2018-06-18T14:33:44.270Z,24.38
2018-06-18T14:34:44.466Z,24.33
2018-06-18T14:35:45.283Z,24.40
2018-06-18T14:36:44.810Z,24.33
2018-06-18T14:37:45.142Z,24.50
2018-06-18T14:38:45.256Z,24.58
2018-06-18T14:39:45.339Z,24.63
2018-06-18T14:40:45.544Z,24.42
2018-06-18T14:41:45.745Z,24.33
2018-06-18T14:42:46.010Z,24.40
2018-06-18T14:43:46.122Z,24.53
2018-06-18T14:44:46.333Z,24.51
2018-06-18T14:45:46.545Z,24.61
2018-06-18T14:46:46.649Z,24.78
2018-06-18T14:47:46.836Z,24.89
2018-06-18T14:48:47.464Z,24.86
2018-06-18T14:49:47.135Z,24.73
2018-06-18T14:50:47.317Z,24.57
2018-06-18T14:51:47.510Z,24.45
2018-06-18T14:52:47.833Z,24.33
2018-06-18T14:53:47.850Z,24.20
2018-06-18T14:54:48.813Z,24.33
2018-06-18T14:55:48.247Z,24.33
2018-06-18T14:56:48.457Z,24.21
2018-06-18T14:57:48.604Z,24.08
2018-06-18T14:58:48.801Z,23.99
2018-06-18T14:59:49.009Z,24.11
2018-06-18T15:00:49.171Z,24.11
2018-06-18T15:01:49.352Z,24.10
2018-06-18T15:02:49.621Z,24.18
2018-06-18T15:03:49.800Z,24.10
2018-06-18T15:04:49.888Z,24.18
2018-06-18T15:05:50.071Z,24.03
2018-06-18T15:06:50.264Z,23.93
2018-06-18T15:07:50.620Z,24.05
2018-06-18T15:08:50.740Z,23.99
2018-06-18T15:09:50.794Z,24.29
2018-06-18T15:10:50.975Z,24.11
2018-06-18T15:11:51.160Z,24.17
2018-06-18T15:12:53.163Z,24.06
2018-06-18T15:13:54.942Z,24.20
2018-06-18T15:14:54.984Z,24.17
2018-06-18T15:15:54.946Z,24.17
2018-06-18T15:16:52.108Z,24.13
2018-06-18T15:17:55.699Z,24.01
2018-06-18T15:18:52.468Z,24.01
2018-06-18T15:19:52.637Z,23.96
2018-06-18T15:20:52.814Z,23.86
2018-06-18T15:21:52.984Z,23.88
2018-06-18T15:22:53.169Z,23.87
2018-06-18T15:23:53.359Z,23.84
2018-06-18T15:24:53.541Z,23.91
2018-06-18T15:25:53.731Z,23.92
2018-06-18T15:26:54.011Z,23.95
2018-06-18T15:27:54.075Z,23.69
2018-06-18T15:28:54.256Z,23.71
2018-06-18T15:29:54.437Z,23.76
2018-06-18T15:30:54.616Z,23.66
2018-06-18T15:31:54.817Z,23.73
2018-06-18T15:32:54.994Z,23.69
2018-06-18T15:33:55.173Z,23.58
2018-06-18T15:34:55.362Z,23.58
2018-06-18T15:35:55.538Z,23.59
2018-06-18T15:36:55.731Z,23.62
2018-06-18T15:37:55.905Z,23.68
2018-06-18T15:38:56.091Z,23.66
2018-06-18T15:39:56.281Z,23.71
2018-06-18T15:40:56.642Z,23.71
2018-06-18T15:41:56.706Z,23.74
2018-06-18T15:42:56.763Z,23.74
2018-06-18T15:43:57.036Z,23.83
2018-06-18T15:44:57.152Z,23.74
2018-06-18T15:45:57.331Z,23.86
2018-06-18T15:46:57.512Z,23.77
2018-06-18T15:47:57.690Z,23.91
2018-06-18T15:48:57.874Z,23.78
2018-06-18T15:49:58.054Z,23.68
2018-06-18T15:50:58.231Z,23.68
2018-06-18T15:51:58.412Z,23.63
2018-06-18T15:52:58.832Z,23.65
2018-06-18T15:53:58.731Z,23.58
2018-06-18T15:54:58.912Z,23.50
2018-06-18T15:55:59.097Z,23.54
2018-06-18T15:56:59.455Z,23.54
2018-06-18T15:57:59.477Z,23.54
2018-06-18T15:58:59.669Z,23.54
2018-06-18T15:59:59.874Z,23.47
2018-06-18T16:01:00.070Z,23.54
2018-06-18T16:02:00.248Z,23.62
2018-06-18T16:03:00.463Z,23.65
2018-06-18T16:04:00.800Z,23.61
2018-06-18T16:05:00.818Z,23.58
2018-06-18T16:06:01.048Z,23.59
2018-06-18T16:07:01.225Z,23.62
2018-06-18T16:08:01.429Z,23.63
2018-06-18T16:09:01.801Z,23.71
2018-06-18T16:10:01.843Z,23.87
2018-06-18T16:11:02.082Z,23.86
2018-06-18T16:12:02.279Z,23.98
2018-06-18T16:13:02.558Z,23.95
2018-06-18T16:14:02.677Z,23.96
2018-06-18T16:15:02.864Z,23.98
2018-06-18T16:16:03.093Z,23.95
2018-06-18T16:17:03.268Z,23.87
2018-06-18T16:18:03.539Z,23.98
2018-06-18T16:19:04.726Z,23.95
2018-06-18T16:20:03.819Z,24.01
2018-06-18T16:21:04.015Z,24.01
2018-06-18T16:22:04.242Z,23.95
2018-06-18T16:23:04.456Z,23.84
2018-06-18T16:24:04.571Z,23.86
2018-06-18T16:25:04.743Z,23.77
2018-06-18T16:26:04.947Z,23.83
2018-06-18T16:27:05.300Z,23.84
2018-06-18T16:28:05.182Z,23.84
2018-06-18T16:29:05.372Z,23.83
2018-06-18T16:30:05.675Z,23.66
2018-06-18T16:31:05.830Z,23.73
2018-06-18T16:32:05.837Z,23.73
2018-06-18T16:33:05.983Z,23.74
2018-06-18T16:34:07.124Z,23.71
2018-06-18T16:35:06.689Z,23.73
2018-06-18T16:36:06.687Z,23.71
2018-06-18T16:37:06.894Z,23.83
2018-06-18T16:38:07.609Z,23.78
2018-06-18T16:39:07.345Z,23.80
2018-06-18T16:40:07.276Z,23.83
2018-06-18T16:41:07.306Z,23.83
2018-06-18T16:42:07.489Z,23.87
2018-06-18T16:43:07.685Z,23.88
2018-06-18T16:44:07.983Z,23.91
2018-06-18T16:45:08.081Z,24.06
2018-06-18T16:46:08.260Z,24.08
2018-06-18T16:47:10.697Z,23.99
2018-06-18T16:48:08.455Z,24.03
2018-06-18T16:49:09.666Z,24.02
2018-06-18T16:50:11.767Z,24.03
2018-06-18T16:51:09.288Z,24.08
2018-06-18T16:52:09.448Z,24.02
2018-06-18T16:53:09.427Z,23.98
2018-06-18T16:54:09.440Z,24.01
2018-06-18T16:55:09.940Z,23.93
2018-06-18T16:56:10.199Z,23.98
2018-06-18T16:57:10.188Z,23.84
2018-06-18T16:58:10.618Z,23.99
2018-06-18T16:59:10.585Z,23.95
2018-06-18T17:00:10.844Z,23.99
2018-06-18T17:01:10.877Z,23.93
2018-06-18T17:02:11.017Z,23.93
2018-06-18T17:03:11.167Z,23.98
2018-06-18T17:04:11.255Z,23.87
2018-06-18T17:05:13.293Z,23.74
2018-06-18T17:06:11.671Z,23.68
2018-06-18T17:07:11.582Z,23.62
2018-06-18T17:08:11.834Z,23.59
2018-06-18T17:09:11.862Z,23.54
2018-06-18T17:10:12.062Z,23.56
2018-06-18T17:11:12.231Z,23.44
2018-06-18T17:12:12.446Z,23.28
2018-06-18T17:13:12.615Z,23.20
2018-06-18T17:14:12.796Z,23.24
2018-06-18T17:15:13.208Z,23.15
2018-06-18T17:16:13.482Z,23.15
2018-06-18T17:17:13.707Z,23.08
2018-06-18T17:18:13.503Z,23.05
2018-06-18T17:19:13.682Z,23.24
2018-06-18T17:20:13.867Z,23.13
2018-06-18T17:21:14.108Z,23.18
2018-06-18T17:22:14.244Z,23.06
2018-06-18T17:23:14.494Z,23.21
2018-06-18T17:24:14.603Z,23.13
2018-06-18T17:25:14.787Z,23.05
2018-06-18T17:26:14.959Z,23.05
2018-06-18T17:27:15.146Z,23.02
2018-06-18T17:28:15.443Z,23.15
2018-06-18T17:29:15.447Z,23.05
2018-06-18T17:30:15.630Z,23.03
2018-06-18T17:31:15.821Z,23.00
2018-06-18T17:32:15.998Z,22.98
2018-06-18T17:33:19.068Z,22.98
2018-06-18T17:34:16.404Z,22.91
2018-06-18T17:35:16.769Z,22.99
2018-06-18T17:36:16.758Z,22.87
2018-06-18T17:37:16.942Z,22.88
2018-06-18T17:38:17.109Z,22.81
2018-06-18T17:39:18.206Z,22.76
2018-06-18T17:40:17.429Z,22.83
2018-06-18T17:41:19.183Z,22.94
2018-06-18T17:42:20.456Z,23.00
2018-06-18T17:43:17.947Z,22.94
2018-06-18T17:44:18.150Z,22.98
2018-06-18T17:45:18.210Z,22.94
2018-06-18T17:46:18.496Z,22.96
2018-06-18T17:47:18.561Z,23.03
2018-06-18T17:48:18.728Z,22.99
2018-06-18T17:49:18.822Z,23.05
2018-06-18T17:50:19.005Z,23.09
2018-06-18T17:51:19.184Z,23.08
2018-06-18T17:52:19.377Z,23.06
2018-06-18T17:53:19.552Z,23.10
2018-06-18T17:54:19.741Z,22.98
2018-06-18T17:55:19.920Z,23.00
2018-06-18T17:56:20.147Z,22.91
2018-06-18T17:57:21.965Z,22.93
2018-06-18T17:58:20.452Z,22.87
2018-06-18T17:59:20.638Z,22.88
2018-06-18T18:00:20.880Z,22.91
2018-06-18T18:01:21.078Z,22.75
2018-06-18T18:02:21.228Z,22.60
2018-06-18T18:03:21.393Z,22.69
2018-06-18T18:04:21.571Z,22.65
2018-06-18T18:05:21.758Z,22.55
2018-06-18T18:06:21.939Z,22.55
2018-06-18T18:07:22.164Z,22.59
2018-06-18T18:08:22.347Z,22.44
2018-06-18T18:09:22.529Z,22.28
2018-06-18T18:10:22.774Z,22.32
2018-06-18T18:11:22.973Z,22.30
2018-06-18T18:12:23.170Z,22.28
2018-06-18T18:13:23.291Z,22.28
2018-06-18T18:14:23.400Z,22.28
2018-06-18T18:15:23.855Z,22.23
2018-06-18T18:16:23.748Z,22.25